createdAt,value
2023-04-17T00:00:50.739Z,10.96
2023-04-17T00:05:54.186Z,10.94
2023-04-17T00:11:04.673Z,10.91
2023-04-17T00:16:14.034Z,10.88
2023-04-17T00:21:15.946Z,10.89
2023-04-17T00:26:17.767Z,10.89
2023-04-17T00:31:20.195Z,10.88
2023-04-17T00:36:22.049Z,10.85
2023-04-17T00:41:23.965Z,10.79
2023-04-17T00:46:26.111Z,10.77
2023-04-17T00:51:28.537Z,10.72
2023-04-17T00:56:31.023Z,10.73
2023-04-17T01:01:32.886Z,10.73
2023-04-17T01:06:34.716Z,10.69
2023-04-17T01:11:37.084Z,10.67
2023-04-17T01:16:40.535Z,10.67
2023-04-17T01:21:42.817Z,10.65
2023-04-17T01:26:44.768Z,10.63
2023-04-17T01:31:46.726Z,10.64
2023-04-17T01:36:48.809Z,10.64
2023-04-17T01:41:51.833Z,10.63
2023-04-17T01:46:54.292Z,10.63
2023-04-17T01:51:57.275Z,10.61
2023-04-17T01:56:59.080Z,10.59
2023-04-17T02:02:01.085Z,10.58
2023-04-17T02:07:03.140Z,10.56
2023-04-17T02:12:06.775Z,10.54
2023-04-17T02:17:08.470Z,10.54
2023-04-17T02:22:10.364Z,10.54
2023-04-17T02:27:12.066Z,10.52
2023-04-17T02:32:18.101Z,10.53
2023-04-17T02:37:21.456Z,10.52
2023-04-17T02:42:23.984Z,10.49
2023-04-17T02:47:25.937Z,10.47
2023-04-17T02:52:29.088Z,10.50
2023-04-17T02:57:31.420Z,10.48
2023-04-17T03:02:34.053Z,10.47
2023-04-17T03:07:36.080Z,10.46
2023-04-17T03:12:38.087Z,10.45
2023-04-17T03:17:39.991Z,10.44
2023-04-17T03:22:42.390Z,10.41
2023-04-17T03:27:44.699Z,10.40
2023-04-17T03:32:48.196Z,10.37
2023-04-17T03:37:50.201Z,10.37
2023-04-17T03:42:55.022Z,10.38
2023-04-17T03:47:57.189Z,10.36
2023-04-17T03:52:59.367Z,10.36
2023-04-17T03:58:03.392Z,10.38
2023-04-17T04:03:08.053Z,10.37
2023-04-17T04:08:15.105Z,10.37
2023-04-17T04:13:21.746Z,10.35
2023-04-17T04:18:33.176Z,10.31
2023-04-17T04:23:38.392Z,10.32
2023-04-17T04:28:44.042Z,10.35
2023-04-17T04:34:03.380Z,10.35
2023-04-17T04:39:05.859Z,10.32
2023-04-17T04:44:11.261Z,10.33
2023-04-17T04:49:15.924Z,10.31
2023-04-17T04:54:18.015Z,10.32
2023-04-17T04:59:26.284Z,10.34
2023-04-17T05:04:47.839Z,10.35
2023-04-17T05:09:51.286Z,10.34
2023-04-17T05:14:53.350Z,10.28
2023-04-17T05:19:55.682Z,10.25
2023-04-17T05:24:59.341Z,10.25
2023-04-17T05:30:02.174Z,10.28
2023-04-17T05:35:06.860Z,10.27
2023-04-17T05:40:10.729Z,10.25
2023-04-17T05:45:14.848Z,10.21
2023-04-17T05:50:16.789Z,10.17
2023-04-17T05:55:20.216Z,10.16
2023-04-17T06:00:25.305Z,10.15
2023-04-17T06:05:32.952Z,10.13
2023-04-17T06:10:36.860Z,10.10
2023-04-17T06:15:38.858Z,10.10
2023-04-17T06:20:41.353Z,10.09
2023-04-17T06:25:43.197Z,10.10
2023-04-17T06:30:45.215Z,10.10
2023-04-17T06:35:47.365Z,10.10
2023-04-17T06:41:05.903Z,10.11
2023-04-17T06:46:07.853Z,10.11
2023-04-17T06:51:09.915Z,10.18
2023-04-17T06:56:12.066Z,10.17
2023-04-17T07:01:15.011Z,10.18
2023-04-17T07:06:17.491Z,10.17
2023-04-17T07:11:19.359Z,10.20
2023-04-17T07:16:24.416Z,10.24
2023-04-17T07:21:27.813Z,10.23
2023-04-17T07:26:29.639Z,10.29
2023-04-17T07:31:31.436Z,10.26
2023-04-17T07:36:33.523Z,10.24
2023-04-17T07:41:35.568Z,10.24
2023-04-17T07:46:37.547Z,10.23
2023-04-17T07:51:41.512Z,10.22
2023-04-17T07:56:46.951Z,10.25
2023-04-17T08:01:49.963Z,10.27
2023-04-17T08:06:52.312Z,10.32
2023-04-17T08:11:58.071Z,10.24
2023-04-17T08:17:00.925Z,10.17
2023-04-17T08:22:04.338Z,10.06
2023-04-17T08:27:07.950Z,10.04
2023-04-17T08:32:14.657Z,10.04
2023-04-17T08:37:17.200Z,10.04
2023-04-17T08:42:19.255Z,9.99
2023-04-17T08:47:21.446Z,10.00
2023-04-17T08:52:23.237Z,10.04
2023-04-17T08:57:25.154Z,10.05
2023-04-17T09:02:27.912Z,9.98
2023-04-17T09:07:30.798Z,9.92
2023-04-17T09:12:32.802Z,9.93
2023-04-17T09:17:36.212Z,9.99
2023-04-17T09:22:40.416Z,10.08
2023-04-17T09:27:42.419Z,10.15
2023-04-17T09:32:44.488Z,10.17
2023-04-17T09:37:50.885Z,10.20
2023-04-17T09:42:53.802Z,10.19
2023-04-17T09:47:58.526Z,10.24
2023-04-17T09:53:00.819Z,10.36
2023-04-17T09:58:04.722Z,10.44
2023-04-17T10:03:09.958Z,10.48
2023-04-17T10:08:11.949Z,10.46
2023-04-17T10:13:14.026Z,10.43
2023-04-17T10:18:24.506Z,10.43
2023-04-17T10:23:28.958Z,10.42
2023-04-17T10:28:50.140Z,10.40
2023-04-17T10:33:57.129Z,10.39
2023-04-17T10:39:16.391Z,10.51
2023-04-17T10:44:18.604Z,10.65
2023-04-17T10:49:23.218Z,10.80
2023-04-17T10:54:25.051Z,10.81
2023-04-17T10:59:30.251Z,10.88
2023-04-17T11:04:33.842Z,11.08
2023-04-17T11:09:36.460Z,11.18
2023-04-17T11:14:40.973Z,11.14
2023-04-17T11:19:43.671Z,10.99
2023-04-17T11:24:47.179Z,10.79
2023-04-17T11:29:49.149Z,10.63
2023-04-17T11:34:54.862Z,10.57
2023-04-17T11:40:07.693Z,10.58
2023-04-17T11:45:10.026Z,10.66
2023-04-17T11:50:14.959Z,10.74
2023-04-17T11:55:16.869Z,10.82
2023-04-17T12:00:20.118Z,10.80
2023-04-17T12:05:22.431Z,10.79
2023-04-17T12:10:24.318Z,10.79
2023-04-17T12:15:26.496Z,10.79
2023-04-17T12:20:28.295Z,10.85
2023-04-17T12:25:31.099Z,10.85
2023-04-17T12:30:36.125Z,10.80
2023-04-17T12:35:38.864Z,10.68
2023-04-17T12:40:43.366Z,10.60
2023-04-17T12:45:46.219Z,10.58
2023-04-17T12:50:48.146Z,10.58
2023-04-17T12:55:50.153Z,10.55
2023-04-17T13:00:52.090Z,10.57
2023-04-17T13:05:54.131Z,10.59
2023-04-17T13:11:00.417Z,10.63
2023-04-17T13:16:02.457Z,10.65
2023-04-17T13:21:04.410Z,10.60
2023-04-17T13:26:06.472Z,10.61
2023-04-17T13:31:11.199Z,10.59
2023-04-17T13:36:13.149Z,10.51
2023-04-17T13:41:15.186Z,10.42
2023-04-17T13:46:17.185Z,10.41
2023-04-17T13:51:19.063Z,10.40
2023-04-17T13:56:23.577Z,10.39
2023-04-17T14:01:25.578Z,10.35
2023-04-17T14:06:28.855Z,10.36
2023-04-17T14:11:30.801Z,10.34
2023-04-17T14:16:32.849Z,10.35
2023-04-17T14:21:35.756Z,10.36
2023-04-17T14:26:38.272Z,10.25
2023-04-17T14:31:40.375Z,10.21
2023-04-17T14:36:43.540Z,10.15
2023-04-17T14:41:45.835Z,10.11
2023-04-17T14:46:47.951Z,10.09
2023-04-17T14:51:49.832Z,10.07
2023-04-17T14:56:51.824Z,10.06
2023-04-17T15:01:53.847Z,10.04
2023-04-17T15:06:55.949Z,10.10
2023-04-17T15:11:57.936Z,10.12
2023-04-17T15:17:02.566Z,10.11
2023-04-17T15:22:04.703Z,10.08
2023-04-17T15:27:06.686Z,10.11
2023-04-17T15:32:08.625Z,10.11
2023-04-17T15:37:11.425Z,10.14
2023-04-17T15:42:13.405Z,10.14
2023-04-17T15:47:15.423Z,10.13
2023-04-17T15:52:17.253Z,10.14
2023-04-17T15:57:19.027Z,10.13
2023-04-17T16:02:21.478Z,10.13
2023-04-17T16:07:26.372Z,10.05
2023-04-17T16:12:28.375Z,9.98
2023-04-17T16:17:30.330Z,9.95
2023-04-17T16:22:32.543Z,9.92
2023-04-17T16:27:34.519Z,9.85
2023-04-17T16:32:36.659Z,9.80
2023-04-17T16:37:38.566Z,9.77
2023-04-17T16:42:40.624Z,9.71
2023-04-17T16:47:42.587Z,9.68
2023-04-17T16:52:44.415Z,9.65
2023-04-17T16:57:48.020Z,9.60
2023-04-17T17:07:51.792Z,9.55
2023-04-17T17:12:54.238Z,9.54
2023-04-17T17:17:56.145Z,9.52
2023-04-17T17:22:58.109Z,9.49
2023-04-17T17:27:59.887Z,9.50
2023-04-17T17:33:01.689Z,9.48
2023-04-17T17:38:03.457Z,9.46
2023-04-17T17:43:05.367Z,9.45
2023-04-17T17:48:07.254Z,9.45
2023-04-17T17:53:11.243Z,9.45
2023-04-17T17:58:13.159Z,9.48
2023-04-17T18:03:16.793Z,9.49
2023-04-17T18:08:19.634Z,9.44
2023-04-17T18:13:21.470Z,9.42
2023-04-17T18:18:23.700Z,9.40
2023-04-17T18:23:25.791Z,9.42
2023-04-17T18:28:27.982Z,9.43
2023-04-17T18:33:29.815Z,9.45
2023-04-17T18:38:32.148Z,9.45
2023-04-17T18:43:34.000Z,9.47
2023-04-17T18:48:36.542Z,9.47
2023-04-17T18:53:38.450Z,9.49
2023-04-17T18:58:40.528Z,9.46
2023-04-17T19:03:42.638Z,9.44
2023-04-17T19:08:44.610Z,9.43
2023-04-17T19:13:46.924Z,9.38
2023-04-17T19:18:48.988Z,9.35
2023-04-17T19:23:51.515Z,9.34
2023-04-17T19:28:53.463Z,9.34
2023-04-17T19:33:57.429Z,9.35
2023-04-17T19:38:59.878Z,9.34
2023-04-17T19:44:01.728Z,9.31
2023-04-17T19:49:03.586Z,9.29
2023-04-17T19:54:05.692Z,9.27
2023-04-17T19:59:07.641Z,9.29
2023-04-17T20:04:09.578Z,9.27
2023-04-17T20:09:13.920Z,9.27
2023-04-17T20:14:19.554Z,9.21
2023-04-17T20:19:21.369Z,9.14
2023-04-17T20:24:23.262Z,9.10
2023-04-17T20:29:25.848Z,9.03
2023-04-17T20:34:27.906Z,9.04
2023-04-17T20:39:29.829Z,9.05
2023-04-17T20:44:32.283Z,9.07
2023-04-17T20:49:34.333Z,9.06
2023-04-17T20:54:36.121Z,9.06
2023-04-17T20:59:39.046Z,9.04
2023-04-17T21:04:40.909Z,9.02
2023-04-17T21:09:43.128Z,9.04
2023-04-17T21:14:44.954Z,9.04
2023-04-17T21:19:47.412Z,9.06
2023-04-17T21:24:49.499Z,9.06
2023-04-17T21:29:51.335Z,9.07
2023-04-17T21:34:53.133Z,9.09
2023-04-17T21:39:55.250Z,9.11
2023-04-17T21:44:57.081Z,9.09
2023-04-17T21:50:00.421Z,9.07
2023-04-17T21:55:07.735Z,9.08
2023-04-17T22:00:12.645Z,9.06
2023-04-17T22:05:14.540Z,9.06
2023-04-17T22:10:16.414Z,9.08
2023-04-17T22:15:18.282Z,9.09
2023-04-17T22:20:20.592Z,9.12
2023-04-17T22:25:22.453Z,9.16
2023-04-17T22:30:24.225Z,9.16
2023-04-17T22:35:27.079Z,9.14
2023-04-17T22:40:30.327Z,9.10
2023-04-17T22:45:32.201Z,9.03
2023-04-17T22:50:34.306Z,9.01
2023-04-17T22:55:36.321Z,9.02
2023-04-17T23:00:38.126Z,9.01
2023-04-17T23:05:39.875Z,8.99
2023-04-17T23:10:41.711Z,9.02
2023-04-17T23:15:43.535Z,9.04
2023-04-17T23:20:46.371Z,9.05
2023-04-17T23:25:48.217Z,9.05
2023-04-17T23:35:56.900Z,9.04
2023-04-17T23:40:58.753Z,9.06
2023-04-17T23:46:00.957Z,9.08
2023-04-17T23:51:03.303Z,9.09
2023-04-17T23:56:05.303Z,9.09
